Česky Dansk Deutsch English Español Suomi Français Magyar Italiano Nederlands norsk Polski Português svenska Türkçe

 

Het Weer

Elsenborn (België)

09:25, 23 augustus 2016 (GMT)

NWNNE
WE
SWSSE
Home            
Elsenborn Spa / La Sauveniere Aachen / Merzbruck Noervenich Bierset Geilenkirchen Maastricht Airport Zuid Limburg Spangdahlem Genk Buechel St-Hubert Sint-Truiden Mendig Brueggen Koeln / Bonn Monchengladbach Kleine Brogel Bertrix Bel-Afb Goetsenhoven Luxembourg / Luxembourg Hahn Schaffen Duesseldorf

Om een weerknop op uw website of weblog te plaatsen, copieer onderstaande code en plak die in uw pagina. In het eerste vakje staat HTML-code, in het tweede vakje UBB-code.


Add to Google

Details

Wind speed:2 bf, 6 kn, 3.1 m/s, 6.9 miles/h, 11.1 km/h
Wind direction:S, 180°
Visibility:Greater than 10000 m, 10 km, 32800 ft, 6.2 miles
Temperature:21°C, 70°F
Dew-point:14°C, 57°F
Atmospheric pressure:1029 hPa, 771.8 mmHg, 30.39 inHg, 1.016 atm
Relative humidity:64.3 %
METAR:EBLB 230925Z AUTO 18006KT 9999 NCD 21/14 Q1029 BLU

Snelkoppelingen

Actuele weersinformatie van de hele wereld. Voeg locaties toe met het plus (+) symbool. Deze snelkoppelingen kunnen worden toegevoegd aan Google.

Lid van de Technetium groep

website free tracking
StatCounter NetStat W3C Validator

16-12-2018 09:41:55
astro.technetium.be money.technetium.be phote.technetium.be tafeltennistafel.technetium.be www.ligfiets.net